createdAt,value
2022-11-21T00:02:10.724Z,96551.00
2022-11-21T00:04:37.543Z,96551.00
2022-11-21T00:07:04.330Z,96550.75
2022-11-21T00:09:34.287Z,96558.50
2022-11-21T00:12:00.970Z,96561.19
2022-11-21T00:14:27.925Z,96555.03
2022-11-21T00:16:57.467Z,96562.78
2022-11-21T00:19:24.505Z,96560.13
2022-11-21T00:21:51.193Z,96551.31
2022-11-21T00:24:17.883Z,96569.50
2022-11-21T00:26:46.082Z,96565.47
2022-11-21T00:29:12.801Z,96546.75
2022-11-21T00:31:39.439Z,96561.69
2022-11-21T00:34:06.068Z,96556.34
2022-11-21T00:36:32.843Z,96552.34
2022-11-21T00:38:59.560Z,96557.63
2022-11-21T00:41:26.288Z,96562.72
2022-11-21T00:43:54.359Z,96544.28
2022-11-21T00:46:21.087Z,96558.72
2022-11-21T00:48:47.689Z,96565.44
2022-11-21T00:51:14.369Z,96566.44
2022-11-21T00:53:41.628Z,96552.53
2022-11-21T00:56:08.474Z,96549.59
2022-11-21T00:58:35.453Z,96556.56
2022-11-21T01:01:05.684Z,96555.22
2022-11-21T01:03:33.989Z,96539.44
2022-11-21T01:06:02.481Z,96551.16
2022-11-21T01:08:29.321Z,96551.16
2022-11-21T01:10:56.079Z,96546.59
2022-11-21T01:13:22.969Z,96539.09
2022-11-21T01:15:49.804Z,96543.97
2022-11-21T01:18:17.864Z,96546.59
2022-11-21T01:20:44.610Z,96538.56
2022-11-21T01:23:11.309Z,96518.47
2022-11-21T01:25:37.974Z,96530.53
2022-11-21T01:28:04.822Z,96518.22
2022-11-21T01:30:31.582Z,96524.38
2022-11-21T01:32:58.268Z,96529.75
2022-11-21T01:35:26.538Z,96521.44
2022-11-21T01:37:53.278Z,96529.44
2022-11-21T01:40:20.007Z,96523.59
2022-11-21T01:42:53.485Z,96518.78
2022-11-21T01:45:55.068Z,96539.16
2022-11-21T01:48:26.364Z,96532.22
2022-11-21T01:50:56.510Z,96534.84
2022-11-21T01:53:23.668Z,96526.53
2022-11-21T01:55:51.044Z,96528.19
2022-11-21T01:58:18.281Z,96531.06
2022-11-21T02:00:47.170Z,96534.56
2022-11-21T02:03:17.798Z,96524.69
2022-11-21T02:05:44.704Z,96533.78
2022-11-21T02:08:17.790Z,96534.56
2022-11-21T02:10:54.135Z,96536.47
2022-11-21T02:13:22.865Z,96533.25
2022-11-21T02:15:49.644Z,96524.44
2022-11-21T02:18:16.410Z,96531.88
2022-11-21T02:20:46.074Z,96529.47
2022-11-21T02:23:25.127Z,96544.25
2022-11-21T02:25:54.119Z,96541.81
2022-11-21T02:28:24.210Z,96538.09
2022-11-21T02:30:51.116Z,96533.53
2022-11-21T02:33:18.811Z,96540.78
2022-11-21T02:35:55.172Z,96545.59
2022-11-21T02:38:25.090Z,96545.59
2022-11-21T02:40:59.602Z,96551.25
2022-11-21T02:43:31.532Z,96565.72
2022-11-21T02:45:59.075Z,96558.22
2022-11-21T02:48:25.878Z,96565.72
2022-11-21T02:50:52.582Z,96565.41
2022-11-21T02:53:19.592Z,96567.00
2022-11-21T02:55:46.309Z,96562.22
2022-11-21T02:58:14.795Z,96559.03
2022-11-21T03:00:42.767Z,96559.03
2022-11-21T03:03:09.920Z,96566.25
2022-11-21T03:05:37.371Z,96564.34
2022-11-21T03:08:05.203Z,96563.25
2022-11-21T03:10:32.135Z,96558.69
2022-11-21T03:13:01.879Z,96562.97
2022-11-21T03:15:31.203Z,96557.94
2022-11-21T03:17:58.513Z,96565.94
2022-11-21T03:20:25.162Z,96566.22
2022-11-21T03:22:53.555Z,96572.38
2022-11-21T03:25:20.482Z,96574.19
2022-11-21T03:27:50.762Z,96585.72
2022-11-21T03:30:17.501Z,96580.38
2022-11-21T03:32:45.609Z,96582.72
2022-11-21T03:35:12.304Z,96584.06
2022-11-21T03:37:38.969Z,96578.97
2022-11-21T03:40:07.255Z,96581.66
2022-11-21T03:42:33.904Z,96578.47
2022-11-21T03:45:00.655Z,96578.22
2022-11-21T03:47:27.566Z,96577.13
2022-11-21T03:49:55.600Z,96584.63
2022-11-21T03:52:22.400Z,96591.28
2022-11-21T03:54:49.124Z,96593.97
2022-11-21T03:57:15.735Z,96594.28
2022-11-21T03:59:42.454Z,96606.31
2022-11-21T04:02:09.101Z,96592.66
2022-11-21T04:04:35.842Z,96592.13
2022-11-21T04:07:04.031Z,96600.16
2022-11-21T04:09:30.758Z,96599.06
2022-11-21T04:11:57.422Z,96607.34
2022-11-21T04:14:24.155Z,96603.59
2022-11-21T04:16:50.891Z,96611.94
2022-11-21T04:19:17.606Z,96611.94
2022-11-21T04:21:44.250Z,96618.88
2022-11-21T04:24:12.565Z,96604.44
2022-11-21T04:26:39.269Z,96611.94
2022-11-21T04:29:06.055Z,96603.63
2022-11-21T04:31:32.744Z,96611.13
2022-11-21T04:33:59.548Z,96604.44
2022-11-21T04:36:26.270Z,96611.09
2022-11-21T04:38:53.070Z,96601.75
2022-11-21T04:41:21.041Z,96610.06
2022-11-21T04:43:47.782Z,96600.72
2022-11-21T04:46:14.406Z,96612.78
2022-11-21T04:48:41.087Z,96610.63
2022-11-21T04:51:07.714Z,96611.94
2022-11-21T04:53:38.593Z,96618.38
2022-11-21T04:56:08.251Z,96614.84
2022-11-21T04:58:36.415Z,96623.44
2022-11-21T05:01:07.752Z,96615.13
2022-11-21T05:03:34.530Z,96609.00
2022-11-21T05:06:01.544Z,96616.22
2022-11-21T05:08:28.459Z,96622.66
2022-11-21T05:11:13.683Z,96615.72
2022-11-21T05:13:41.854Z,96621.09
2022-11-21T05:16:08.580Z,96608.78
2022-11-21T05:18:35.231Z,96618.72
2022-11-21T05:21:03.065Z,96615.72
2022-11-21T05:23:29.821Z,96617.34
2022-11-21T05:25:56.599Z,96623.75
2022-11-21T05:28:23.317Z,96624.81
2022-11-21T05:30:51.635Z,96622.41
2022-11-21T05:33:18.672Z,96630.44
2022-11-21T05:35:45.477Z,96637.41
2022-11-21T05:38:12.249Z,96624.03
2022-11-21T05:40:39.078Z,96633.41
2022-11-21T05:43:24.290Z,96625.94
2022-11-21T05:45:52.362Z,96629.16
2022-11-21T05:48:19.014Z,96619.00
2022-11-21T05:50:48.540Z,96631.34
2022-11-21T05:53:15.538Z,96622.25
2022-11-21T05:55:42.263Z,96617.41
2022-11-21T05:58:10.753Z,96620.91
2022-11-21T06:00:41.367Z,96617.69
2022-11-21T06:03:28.488Z,96611.78
2022-11-21T06:06:06.614Z,96610.47
2022-11-21T06:08:36.274Z,96604.06
2022-11-21T06:11:03.850Z,96608.59
2022-11-21T06:13:31.088Z,96619.28
2022-11-21T06:16:00.960Z,96618.25
2022-11-21T06:18:31.375Z,96615.56
2022-11-21T06:21:01.796Z,96621.16
2022-11-21T06:23:28.458Z,96620.06
2022-11-21T06:25:57.192Z,96614.72
2022-11-21T06:28:23.995Z,96621.69
2022-11-21T06:30:51.946Z,96623.84
2022-11-21T06:33:19.845Z,96622.78
2022-11-21T06:35:48.036Z,96625.72
2022-11-21T06:38:18.689Z,96626.25
2022-11-21T06:40:45.521Z,96623.56
2022-11-21T06:43:12.286Z,96623.06
2022-11-21T06:45:39.191Z,96625.47
2022-11-21T06:48:06.410Z,96622.25
2022-11-21T06:50:33.101Z,96628.16
2022-11-21T06:53:01.551Z,96633.22
2022-11-21T06:55:29.819Z,96637.50
2022-11-21T06:57:58.457Z,96641.78
2022-11-21T07:00:25.305Z,96638.84
2022-11-21T07:02:52.138Z,96643.38
2022-11-21T07:05:18.972Z,96647.66
2022-11-21T07:07:45.782Z,96652.72
2022-11-21T07:10:14.280Z,96642.28
2022-11-21T07:12:59.444Z,96644.41
2022-11-21T07:15:26.144Z,96649.50
2022-11-21T07:17:52.824Z,96655.38
2022-11-21T07:20:19.574Z,96658.06
2022-11-21T07:22:46.219Z,96661.81
2022-11-21T07:25:14.382Z,96669.84
2022-11-21T07:27:41.107Z,96653.22
2022-11-21T07:30:09.326Z,96641.72
2022-11-21T07:32:38.955Z,96649.22
2022-11-21T07:35:06.708Z,96658.84
2022-11-21T07:37:33.469Z,96667.69
2022-11-21T07:40:00.254Z,96665.56
2022-11-21T07:42:28.352Z,96665.81
2022-11-21T07:44:55.078Z,96666.09
2022-11-21T07:47:21.883Z,96670.88
2022-11-21T07:49:48.639Z,96665.78
2022-11-21T07:52:15.321Z,96670.88
2022-11-21T07:54:41.974Z,96669.53
2022-11-21T07:57:08.825Z,96671.13
2022-11-21T07:59:37.329Z,96670.34
2022-11-21T08:02:04.242Z,96671.41
2022-11-21T08:04:31.145Z,96673.56
2022-11-21T08:06:57.941Z,96672.47
2022-11-21T08:09:28.350Z,96661.50
2022-11-21T08:11:55.164Z,96673.00
2022-11-21T08:14:22.006Z,96671.66
2022-11-21T08:16:53.073Z,96666.56
2022-11-21T08:19:19.768Z,96662.53
2022-11-21T08:21:46.582Z,96666.03
2022-11-21T08:24:14.687Z,96666.56
2022-11-21T08:26:41.546Z,96656.38
2022-11-21T08:29:12.152Z,96660.63
2022-11-21T08:31:41.746Z,96654.19
2022-11-21T08:34:14.372Z,96667.34
2022-11-21T08:36:41.670Z,96659.84
2022-11-21T08:39:08.521Z,96668.66
2022-11-21T08:41:53.602Z,96656.88
2022-11-21T08:44:20.365Z,96655.00
2022-11-21T08:46:47.046Z,96660.09
2022-11-21T08:49:15.493Z,96656.38
2022-11-21T08:51:42.599Z,96649.91
2022-11-21T08:54:09.764Z,96657.13
2022-11-21T08:56:36.515Z,96650.97
2022-11-21T08:59:03.441Z,96653.63
2022-11-21T09:01:30.258Z,96644.53
2022-11-21T09:03:57.350Z,96640.78
2022-11-21T09:10:59.049Z,96639.06
2022-11-21T09:13:27.619Z,96644.38
2022-11-21T09:16:17.642Z,96642.00
2022-11-21T09:18:47.170Z,96649.75
2022-11-21T09:21:14.885Z,96658.56
2022-11-21T09:23:41.599Z,96652.44
2022-11-21T09:26:08.348Z,96651.84
2022-11-21T09:28:36.706Z,96653.19
2022-11-21T09:31:04.649Z,96656.94
2022-11-21T09:33:32.172Z,96652.94
2022-11-21T09:35:59.425Z,96657.78
2022-11-21T09:38:26.958Z,96657.84
2022-11-21T09:41:22.439Z,96657.56
2022-11-21T09:43:58.685Z,96663.47
2022-11-21T09:46:35.921Z,96658.38
2022-11-21T09:49:07.346Z,96664.50
2022-11-21T09:51:38.847Z,96672.50
2022-11-21T09:54:12.037Z,96660.13
2022-11-21T09:56:42.426Z,96657.16
2022-11-21T09:59:27.506Z,96658.78
2022-11-21T10:01:56.683Z,96645.63
2022-11-21T10:04:25.471Z,96645.53
2022-11-21T10:07:04.400Z,96639.53
2022-11-21T10:09:48.242Z,96633.41
2022-11-21T10:12:40.015Z,96633.94
2022-11-21T10:15:26.462Z,96629.41
2022-11-21T10:18:09.972Z,96624.69
2022-11-21T10:20:54.450Z,96624.44
2022-11-21T10:23:40.132Z,96620.44
2022-11-21T10:26:16.451Z,96611.94
2022-11-21T10:28:51.565Z,96619.41
2022-11-21T10:31:20.764Z,96608.81
2022-11-21T10:33:49.385Z,96609.13
2022-11-21T10:36:25.538Z,96610.72
2022-11-21T10:38:58.545Z,96599.78
2022-11-21T10:41:38.988Z,96598.19
2022-11-21T10:44:33.451Z,96594.81
2022-11-21T10:47:02.102Z,96581.06
2022-11-21T10:49:33.692Z,96581.94
2022-11-21T10:52:06.072Z,96560.69
2022-11-21T10:54:32.927Z,96560.47
2022-11-21T10:57:06.888Z,62402.38
2022-11-21T10:59:33.687Z,62402.38
2022-11-21T11:02:20.660Z,62402.38
2022-11-21T11:04:52.020Z,62402.38
2022-11-21T11:07:24.887Z,62402.38
2022-11-21T11:09:52.716Z,62402.38
2022-11-21T11:12:47.803Z,62402.38
2022-11-21T11:15:19.897Z,62402.38
2022-11-21T11:17:54.168Z,62402.38
2022-11-21T11:20:32.881Z,62402.38
2022-11-21T11:22:59.743Z,62402.38
2022-11-21T11:25:26.838Z,62402.38
2022-11-21T11:27:53.818Z,62402.38
2022-11-21T11:30:21.285Z,62402.38
2022-11-21T11:32:48.144Z,62402.38
2022-11-21T11:35:22.292Z,62402.38
2022-11-21T11:37:59.069Z,62402.38
2022-11-21T11:40:30.403Z,62402.38
2022-11-21T11:43:32.219Z,62402.38
2022-11-21T11:46:30.962Z,62402.38
2022-11-21T11:49:19.882Z,62402.38
2022-11-21T11:51:53.221Z,62402.38
2022-11-21T11:54:23.757Z,62402.38
2022-11-21T11:56:50.793Z,96508.59
2022-11-21T11:59:22.732Z,96506.56
2022-11-21T12:01:57.163Z,96505.81
2022-11-21T12:04:25.504Z,96492.38
2022-11-21T12:08:05.885Z,96482.53
2022-11-21T12:09:55.030Z,96483.72
2022-11-21T12:12:32.882Z,62402.38
2022-11-21T12:15:33.031Z,62402.38
2022-11-21T12:18:20.714Z,62402.38
2022-11-21T12:20:56.403Z,62402.38
2022-11-21T12:23:27.728Z,62402.38
2022-11-21T12:26:07.914Z,62402.38
2022-11-21T12:28:45.582Z,62402.38
2022-11-21T12:31:16.940Z,62402.38
2022-11-21T12:33:51.897Z,62402.38
2022-11-21T12:36:28.334Z,62402.38
2022-11-21T12:39:25.920Z,62402.38
2022-11-21T12:42:18.775Z,62402.38
2022-11-21T12:45:02.992Z,62402.38
2022-11-21T12:48:09.497Z,62402.38
2022-11-21T12:51:09.003Z,62402.38
2022-11-21T12:54:03.713Z,62402.38
2022-11-21T12:56:45.396Z,62402.38
2022-11-21T12:59:14.388Z,62402.38
2022-11-21T13:01:52.918Z,62402.38
2022-11-21T13:04:24.842Z,62402.38
2022-11-21T13:06:53.607Z,62402.38
2022-11-21T13:09:23.635Z,62402.38
2022-11-21T13:12:00.431Z,62402.38
2022-11-21T13:14:37.652Z,62402.38
2022-11-21T13:17:15.067Z,62402.38
2022-11-21T13:19:50.445Z,62402.38
2022-11-21T13:22:52.230Z,62402.38
2022-11-21T13:25:43.360Z,62402.38
2022-11-21T13:28:34.649Z,62402.38
2022-11-21T13:31:03.633Z,62402.38
2022-11-21T13:33:55.644Z,62402.38
2022-11-21T13:36:39.025Z,62402.38
2022-11-21T13:39:33.978Z,62402.38
2022-11-21T13:42:24.749Z,62402.38
2022-11-21T13:44:53.587Z,62402.38
2022-11-21T13:47:56.630Z,62402.38
2022-11-21T13:51:13.307Z,62402.38
2022-11-21T13:54:17.119Z,62402.38
2022-11-21T13:57:03.848Z,62402.38
2022-11-21T13:59:49.119Z,62402.38
2022-11-21T14:02:56.478Z,62402.38
2022-11-21T14:05:39.378Z,62402.38
2022-11-21T14:08:17.031Z,62402.38
2022-11-21T14:10:47.464Z,62402.38
2022-11-21T14:13:24.398Z,62402.38
2022-11-21T14:16:03.977Z,62402.38
2022-11-21T14:18:33.409Z,62402.38
2022-11-21T14:21:02.101Z,62402.38
2022-11-21T14:23:31.524Z,62402.38
2022-11-21T14:26:02.126Z,62402.38
2022-11-21T14:28:30.874Z,62402.38
2022-11-21T14:30:59.217Z,62402.38
2022-11-21T14:33:34.562Z,62402.38
2022-11-21T14:36:06.820Z,96483.72
2022-11-21T14:38:40.139Z,62402.38
2022-11-21T14:41:29.824Z,62402.38
2022-11-21T14:44:23.153Z,62402.38
2022-11-21T14:46:51.547Z,62402.38
2022-11-21T14:49:22.680Z,62402.38
2022-11-21T14:51:51.315Z,62402.38
2022-11-21T14:54:21.177Z,62402.38
2022-11-21T14:56:55.877Z,62402.38
2022-11-21T14:59:26.991Z,62402.38
2022-11-21T15:02:00.038Z,62402.38
2022-11-21T15:04:31.698Z,62402.38
2022-11-21T15:06:59.491Z,62402.38
2022-11-21T15:10:26.191Z,62402.38
2022-11-21T15:12:17.553Z,62402.38
2022-11-21T15:14:49.372Z,62402.38
2022-11-21T15:17:23.295Z,62402.38
2022-11-21T15:20:09.831Z,62402.38
2022-11-21T15:22:41.341Z,96202.31
2022-11-21T15:25:16.021Z,96191.94
2022-11-21T15:27:43.831Z,96185.63
2022-11-21T15:30:28.645Z,96183.13
2022-11-21T15:33:04.754Z,96176.72
2022-11-21T15:35:49.953Z,96168.47
2022-11-21T15:38:29.318Z,96163.72
2022-11-21T15:40:59.163Z,62402.38
2022-11-21T15:43:43.106Z,62402.38
2022-11-21T15:46:19.185Z,62402.38
2022-11-21T15:48:49.700Z,62402.38
2022-11-21T15:51:31.839Z,62402.38
2022-11-21T15:54:08.195Z,62402.38
2022-11-21T15:56:35.577Z,62402.38
2022-11-21T15:59:02.729Z,62402.38
2022-11-21T16:01:30.566Z,62402.38
2022-11-21T16:03:58.892Z,62402.38
2022-11-21T16:06:27.622Z,62402.38
2022-11-21T16:08:54.561Z,62402.38
2022-11-21T16:11:23.770Z,62402.38
2022-11-21T16:13:50.557Z,62402.38
2022-11-21T16:16:17.635Z,62402.38
2022-11-21T16:18:44.466Z,62402.38
2022-11-21T16:21:11.845Z,62402.38
2022-11-21T16:23:40.167Z,62402.38
2022-11-21T16:26:08.365Z,62402.38
2022-11-21T16:28:36.342Z,62402.38
2022-11-21T16:31:05.042Z,62402.38
2022-11-21T16:33:33.261Z,62402.38
2022-11-21T16:36:00.435Z,62402.38
2022-11-21T16:38:28.497Z,62402.38
2022-11-21T16:40:59.055Z,62402.38
2022-11-21T16:43:27.025Z,62402.38
2022-11-21T16:45:54.086Z,96038.47
2022-11-21T16:48:21.481Z,96032.03
2022-11-21T16:50:48.541Z,96027.66
2022-11-21T16:53:17.094Z,96022.41
2022-11-21T16:55:44.293Z,96021.16
2022-11-21T16:58:14.850Z,96009.41
2022-11-21T17:00:42.669Z,96012.31
2022-11-21T17:03:10.302Z,95998.28
2022-11-21T17:05:37.011Z,62402.38
2022-11-21T17:08:04.340Z,62402.38
2022-11-21T17:10:33.974Z,95999.50
2022-11-21T17:13:01.838Z,95990.63
2022-11-21T17:15:30.033Z,95992.50
2022-11-21T17:18:01.860Z,95998.66
2022-11-21T17:20:28.613Z,95998.06
2022-11-21T17:22:55.320Z,96001.50
2022-11-21T17:25:22.056Z,95992.97
2022-11-21T17:27:48.746Z,95995.38
2022-11-21T17:30:15.948Z,95996.16
2022-11-21T17:32:44.004Z,95996.72
2022-11-21T17:35:11.541Z,95993.47
2022-11-21T17:37:38.280Z,95975.59
2022-11-21T17:40:06.765Z,95979.03
2022-11-21T17:42:33.626Z,95988.97
2022-11-21T17:45:00.388Z,95984.22
2022-11-21T17:47:27.641Z,95990.13
2022-11-21T17:49:56.766Z,95990.34
2022-11-21T17:52:25.797Z,95981.31
2022-11-21T17:54:52.597Z,95975.38
2022-11-21T17:57:21.816Z,95963.38
2022-11-21T17:59:48.550Z,95947.94
2022-11-21T18:02:15.739Z,95946.91
2022-11-21T18:04:42.674Z,95937.66
2022-11-21T18:07:11.285Z,95931.00
2022-11-21T18:09:38.115Z,95944.38
2022-11-21T18:12:05.757Z,95936.72
2022-11-21T18:14:32.554Z,95932.47
2022-11-21T18:16:59.326Z,95922.06
2022-11-21T18:19:26.150Z,95919.88
2022-11-21T18:21:53.059Z,95927.44
2022-11-21T18:24:21.778Z,95923.41
2022-11-21T18:26:48.676Z,95928.56
2022-11-21T18:32:03.388Z,95928.25
2022-11-21T18:34:30.391Z,95926.75
2022-11-21T18:36:57.197Z,95923.81
2022-11-21T18:39:27.235Z,95920.13
2022-11-21T18:41:54.101Z,95934.28
2022-11-21T18:44:22.590Z,95944.75
2022-11-21T18:46:50.239Z,95947.69
2022-11-21T18:49:18.027Z,95955.69
2022-11-21T18:51:45.113Z,95957.59
2022-11-21T18:54:11.949Z,95954.13
2022-11-21T18:56:40.616Z,95964.22
2022-11-21T18:59:10.046Z,95967.97
2022-11-21T19:01:41.255Z,95975.66
2022-11-21T19:04:12.049Z,95978.22
2022-11-21T19:06:40.486Z,95968.91
2022-11-21T19:09:08.233Z,95956.84
2022-11-21T19:11:35.063Z,95946.22
2022-11-21T19:14:03.641Z,95957.72
2022-11-21T19:16:34.946Z,95955.31
2022-11-21T19:19:33.099Z,95947.66
2022-11-21T19:21:51.897Z,62402.38
2022-11-21T19:24:19.541Z,95938.25
2022-11-21T19:26:46.530Z,95940.94
2022-11-21T19:29:14.612Z,95922.78
2022-11-21T19:31:45.781Z,95931.09
2022-11-21T19:34:13.176Z,95920.69
2022-11-21T19:36:40.514Z,95930.31
2022-11-21T19:39:07.894Z,95918.88
2022-11-21T19:41:34.905Z,95916.97
2022-11-21T19:44:02.207Z,95911.09
2022-11-21T19:46:32.296Z,95903.91
2022-11-21T19:49:00.473Z,95903.13
2022-11-21T19:51:29.486Z,95890.84
2022-11-21T19:53:56.552Z,95879.34
2022-11-21T19:56:25.411Z,95876.97
2022-11-21T19:58:53.504Z,95876.22
2022-11-21T20:01:21.948Z,95867.66
2022-11-21T20:03:51.994Z,95855.69
2022-11-21T20:06:20.718Z,95853.22
2022-11-21T20:08:49.776Z,95854.59
2022-11-21T20:11:16.878Z,95852.03
2022-11-21T20:13:45.273Z,95844.53
2022-11-21T20:16:19.385Z,95837.25
2022-11-21T20:18:46.894Z,95838.00
2022-11-21T20:21:15.723Z,95832.13
2022-11-21T20:23:42.877Z,95813.94
2022-11-21T20:26:10.032Z,95820.81
2022-11-21T20:28:37.538Z,95818.16
2022-11-21T20:31:10.493Z,95801.28
2022-11-21T20:33:40.996Z,95807.66
2022-11-21T20:36:10.919Z,95799.19
2022-11-21T20:38:41.663Z,95801.63
2022-11-21T20:41:08.454Z,95799.09
2022-11-21T20:44:14.387Z,95800.75
2022-11-21T20:46:22.877Z,95801.53
2022-11-21T20:48:50.051Z,95804.44
2022-11-21T20:54:07.493Z,95804.66
2022-11-21T20:56:35.571Z,95819.31
2022-11-21T20:59:02.686Z,95814.16
2022-11-21T21:01:29.838Z,95803.97
2022-11-21T21:03:56.862Z,95813.22
2022-11-21T21:06:26.779Z,95810.84
2022-11-21T21:08:53.594Z,95796.53
2022-11-21T21:14:10.345Z,95797.88
2022-11-21T21:16:37.104Z,95797.25
2022-11-21T21:19:03.885Z,95804.22
2022-11-21T21:21:33.446Z,95806.47
2022-11-21T21:24:03.326Z,95804.28
2022-11-21T21:26:40.248Z,95799.56
2022-11-21T21:29:10.472Z,95798.31
2022-11-21T21:31:37.115Z,95788.13
2022-11-21T21:34:03.898Z,95794.13
2022-11-21T21:36:32.110Z,95791.03
2022-11-21T21:39:00.296Z,95793.28
2022-11-21T21:41:29.236Z,95784.59
2022-11-21T21:43:58.281Z,95785.56
2022-11-21T21:46:27.241Z,95788.06
2022-11-21T21:48:55.912Z,95779.09
2022-11-21T21:51:24.739Z,95775.69
2022-11-21T21:53:52.590Z,95776.91
2022-11-21T21:56:20.696Z,95775.69
2022-11-21T21:58:48.594Z,95767.13
2022-11-21T22:01:18.078Z,95757.84
2022-11-21T22:03:46.658Z,95747.53
2022-11-21T22:06:16.282Z,95737.13
2022-11-21T22:08:44.451Z,95737.50
2022-11-21T22:11:13.646Z,95756.41
2022-11-21T22:13:42.784Z,95757.56
2022-11-21T22:16:10.996Z,95761.75
2022-11-21T22:18:39.832Z,95763.91
2022-11-21T22:21:13.500Z,95760.50
2022-11-21T22:23:56.129Z,95759.13
2022-11-21T22:26:26.968Z,95754.88
2022-11-21T22:28:54.146Z,95749.84
2022-11-21T22:31:20.982Z,95750.69
2022-11-21T22:33:49.534Z,95757.06
2022-11-21T22:36:18.043Z,95749.47
2022-11-21T22:38:45.589Z,95750.84
2022-11-21T22:41:15.503Z,95751.06
2022-11-21T22:43:42.894Z,95751.56
2022-11-21T22:46:11.531Z,95754.22
2022-11-21T22:48:38.543Z,95755.59
2022-11-21T22:51:07.567Z,95752.88
2022-11-21T22:53:39.716Z,95749.84
2022-11-21T22:56:08.521Z,95742.13
2022-11-21T22:58:36.946Z,95740.25
2022-11-21T23:01:12.370Z,95740.69
2022-11-21T23:03:39.407Z,95734.56
2022-11-21T23:06:10.073Z,95723.56
2022-11-21T23:08:37.376Z,95721.41
2022-11-21T23:11:05.334Z,95710.81
2022-11-21T23:13:32.659Z,95710.81
2022-11-21T23:15:59.357Z,95707.53
2022-11-21T23:18:26.218Z,95698.53
2022-11-21T23:20:52.896Z,95697.88
2022-11-21T23:23:21.175Z,95695.13
2022-11-21T23:25:47.854Z,95691.84
2022-11-21T23:28:14.599Z,95695.66
2022-11-21T23:30:43.341Z,95698.22
2022-11-21T23:33:10.018Z,95701.69
2022-11-21T23:35:36.889Z,95699.22
2022-11-21T23:38:04.197Z,95709.91
2022-11-21T23:40:32.303Z,95698.97
2022-11-21T23:42:59.036Z,95706.69
2022-11-21T23:45:25.984Z,95693.88
2022-11-21T23:47:52.667Z,95689.56
2022-11-21T23:50:21.125Z,95699.44
2022-11-21T23:52:48.349Z,95701.91
2022-11-21T23:55:15.480Z,95712.59
2022-11-21T23:57:46.648Z,95705.88
